WFO RAH Logo

WFO RAH Text Data

METAR KRDU 180651Z 04004KT 10SM SCT045 BKN120 BKN200 M02/M08 A3061 RMK AO2 SLP371 T10171083 
METAR KRDU 180751Z 03004KT 10SM BKN045 OVC120 M01/M08 A3059 RMK AO2 SLP363 T10111083 
METAR KRDU 180851Z 03004KT 10SM OVC035 M01/M08 A3057 RMK AO2 SLP356 T10111083 58019 
METAR KRDU 180951Z 02004KT 10SM OVC035 M01/M08 A3055 RMK AO2 SLP351 T10111083 
SPECI KRDU 181001Z 00000KT 10SM -PL OVC030 M01/M08 A3056 RMK AO2 PLB01 P0000 
SPECI KRDU 181020Z 00000KT 10SM -FZRAPL OVC027 M01/M08 A3056 RMK AO2 UPB02E20FZRAB20PLB01 P0000
SPECI KRDU 181020Z COR 00000KT 10SM -FZRAPL OVC027 M01/M08 A3056 RMK AO2 FZRAB20PLB01 P0000
METAR KRDU 181051Z COR 36003KT 10SM -FZRAPL OVC027 M01/M06 A3058 RMK AO2 FZRAB20PLB01 SLP360 P0001 T10111061
SPECI KRDU 181107Z 36003KT 4SM -SN OVC015 M02/M06 A3058 RMK AO2 FZRAE01PLE01SNB01 P0001SPUS70 
SPECI KRDU 181124Z VRB03KT 2SM -SN BKN015 OVC025 M02/M05 A3060 RMK AO2 FZRAE01PLE01SNB01 P0002
METAR KRDU 181151Z 02005KT 1SM -SN BR BKN015 OVC025 M03/M04 A3059 RMK AO2 FZRAE01PLE01SNB01 SLP364 P0005 60006 70006 T10281044 11006 21028 53006
SPECI KRDU 181214Z 03004KT 3/4SM -SN BR SCT005 OVC012 M03/M04 A3058 RMK AO2 P0002
SPECI KRDU 181239Z 02005KT 1SM -SN BR SCT005 OVC012 M02/M04 A3057 RMK AO2 VIS 3/4V1 1/2 P0004
METAR KRDU 181251Z 02004KT 2SM -SN BR FEW005 BKN015 OVC030 M02/M04 A3056 RMK AO2 SLP354 P0005 T10221039
SPECI KRDU 181302Z 03004KT 6SM -PLSN BR FEW005 BKN015 OVC030 M02/M04 A3056 RMK AO2 PLB00 P0000 $
SPECI KRDU 181327Z 03005KT 4SM -FZRAPL BR FEW009 OVC028 M02/M03 A3055 RMK AO2 FZRAB26PLB00E26SNE26 P0001
SPECI KRDU 181327Z COR 03005KT 4SM -FZRAPL BR FEW009 OVC028 M02/M03 A3055 RMK AO2 FZRAB26PLB00SNE26 P0001
SPECI KRDU 181336Z 02005KT 6SM -FZRA BR FEW009 OVC028 M02/M03 A3056 RMK AO2 FZRAB26PLB00E36SNE26 P0002
METAR KRDU 181351Z 03006KT 6SM -FZRA BR BKN006 OVC025 M02/M03 A3054 RMK AO2 FZRAB26PLB00E36SNE26 SLP348 BKN V SCT P0002 T10171033
METAR KRDU 181451Z 02004KT 5SM -FZRA BR BKN007 OVC020 M01/M02 A3055 RMK AO2 SLP349 P0002 60009 T10111022 55014
METAR KRDU 181551Z 00000KT 4SM -FZRA BR OVC005 M01/M02 A3052 RMK AO2 PRESFR SLP341 CIG 004V008 P0002 T10061017
SPECI KRDU 181633Z 02004KT 6SM -DZ BR OVC005 00/M02 A3049 RMK AO2 DZB33FZRAE31FZDZB31E33 CIG 004V008 P0001
SPECI KRDU 181633Z COR 02004KT 6SM -DZ BR OVC005 00/M02 A3049 RMK AO2 DZB31FZRAE31 CIG 004V008 P0001
METAR KRDU 181651Z COR 01004KT 6SM -DZ BR OVC005 00/M01 A3048 RMK AO2 DZB31FZRAE31 SLP327 CIG 004V008 P0001 T00001011
METAR KRDU 181751Z 02005KT 4SM -RA BR OVC004 01/M01 A3043 RMK AO2 DZE39RAB39 SLP308 CIG 003V006 P0000 60012 T00061006 10006 21028 
58040
METAR KRDU 181851Z 02005KT 4SM -RA BR OVC004 01/M01 A3037 RMK AO2 SLP290 CIG 003V006 P0001 T00061006
SPECI KRDU 181919Z 36005KT 1SM -RA BR OVC004 01/M01 A3036 RMK AO2 SFC VIS 2 1/2 CIG 003V006 P0000
METAR KRDU 181951Z VRB05KT 1/2SM -RA FG OVC004 01/M01 A3037 RMK AO2 SFC VIS 1 1/2 SLP287 CIG 003V006 P0001 T00061006
SPECI KRDU 182030Z 36004KT 1SM -RA BR OVC004 01/M01 A3033 RMK AO2 SFC VIS 2 1/2 CIG 003V006 P0002
METAR KRDU 182051Z 02007KT 1SM -RA BR OVC004 01/00 A3034 RMK AO2 SFC VIS 2 SLP277 CIG 002V006 P0003 60005 T00060000 56030